Time;durP1;ratioP1;P1;durP2;ratioP2;P2;SDS_P1;SDS_P2;PMS_P1;PMS_P2;Temp;Humidity;BMP_temperature;BMP_pressure;BME280_temperature;BME280_humidity;BME280_pressure;Samples;Min_cycle;Max_cycle;Signal;HPM_P1;HPM_P2
2022/07/09 00:00:51;;;;;;;4.15;2.20;;;;;;;;;;5017550;28;20136;-78
2022/07/09 00:03:17;;;;;;;4.97;2.40;;;;;;;;;;5004053;28;20129;-77
2022/07/09 00:05:46;;;;;;;4.55;2.92;;;;;;;;;;5002526;28;20046;-78
2022/07/09 00:08:12;;;;;;;4.68;2.05;;;;;;;;;;5007900;28;20103;-77
2022/07/09 00:10:38;;;;;;;4.18;2.22;;;;;;;;;;5006123;28;20064;-79
2022/07/09 00:13:04;;;;;;;2.33;2.03;;;;;;;;;;5015530;28;20046;-79
2022/07/09 00:15:30;;;;;;;3.25;2.20;;;;;;;;;;5011740;28;20145;-78
2022/07/09 00:17:56;;;;;;;4.63;2.22;;;;;;;;;;5010223;28;20145;-78
2022/07/09 00:20:22;;;;;;;3.88;2.05;;;;;;;;;;5010405;28;20050;-78
2022/07/09 00:22:48;;;;;;;3.95;2.10;;;;;;;;;;5008360;28;20058;-77
2022/07/09 00:25:14;;;;;;;2.95;2.08;;;;;;;;;;5005067;28;20100;-78
2022/07/09 00:27:40;;;;;;;6.10;2.58;;;;;;;;;;5001512;28;20390;-78
2022/07/09 00:30:07;;;;;;;3.80;2.17;;;;;;;;;;5014688;28;20050;-79
2022/07/09 00:32:33;;;;;;;5.18;2.30;;;;;;;;;;5006585;28;20041;-78
2022/07/09 00:34:59;;;;;;;5.55;2.40;;;;;;;;;;5009325;28;20038;-78
2022/07/09 00:37:25;;;;;;;5.15;2.28;;;;;;;;;;5012406;28;20405;-78
2022/07/09 00:39:51;;;;;;;7.57;2.40;;;;;;;;;;5006921;28;20034;-78
2022/07/09 00:42:17;;;;;;;4.32;2.50;;;;;;;;;;5008527;28;20053;-79
2022/07/09 00:44:43;;;;;;;6.40;2.58;;;;;;;;;;5009900;28;20060;-78
2022/07/09 00:47:09;;;;;;;3.03;2.30;;;;;;;;;;5006769;28;20477;-78
2022/07/09 00:49:39;;;;;;;4.25;2.30;;;;;;;;;;5007158;28;20050;-78
2022/07/09 00:52:06;;;;;;;4.90;2.45;;;;;;;;;;5011576;28;20042;-78
2022/07/09 00:54:32;;;;;;;4.43;2.50;;;;;;;;;;5006324;28;20077;-80
2022/07/09 00:56:59;;;;;;;4.68;2.50;;;;;;;;;;5009519;28;20034;-78
2022/07/09 00:59:25;;;;;;;3.58;2.35;;;;;;;;;;5008607;28;20128;-78
2022/07/09 01:01:54;;;;;;;6.88;2.85;;;;;;;;;;5006162;28;20561;-78
2022/07/09 01:04:20;;;;;;;4.00;2.40;;;;;;;;;;5012901;28;20053;-78
2022/07/09 01:06:46;;;;;;;2.60;2.10;;;;;;;;;;5007636;28;20096;-78
2022/07/09 01:09:13;;;;;;;5.10;2.35;;;;;;;;;;5009400;28;20042;-78
2022/07/09 01:11:39;;;;;;;3.50;2.30;;;;;;;;;;5009066;28;20041;-78
2022/07/09 01:14:05;;;;;;;3.33;2.30;;;;;;;;;;5008021;28;20164;-79
2022/07/09 01:16:37;;;;;;;3.55;2.13;;;;;;;;;;5003162;28;20136;-78
2022/07/09 01:19:03;;;;;;;3.45;2.15;;;;;;;;;;5010907;28;20044;-78
2022/07/09 01:21:29;;;;;;;5.03;2.30;;;;;;;;;;5008767;28;20498;-78
2022/07/09 01:23:56;;;;;;;3.10;2.30;;;;;;;;;;5003130;28;20073;-78
2022/07/09 01:26:22;;;;;;;4.78;2.50;;;;;;;;;;5010294;28;20042;-77
2022/07/09 01:28:48;;;;;;;5.43;2.40;;;;;;;;;;5008495;28;20083;-77
2022/07/09 01:31:14;;;;;;;2.67;2.40;;;;;;;;;;5004693;28;20085;-78
2022/07/09 01:33:40;;;;;;;3.53;2.38;;;;;;;;;;5009937;28;20053;-78
2022/07/09 01:36:07;;;;;;;4.38;2.65;;;;;;;;;;5006800;28;20037;-78
2022/07/09 01:38:33;;;;;;;3.35;2.30;;;;;;;;;;5005100;28;20500;-79
2022/07/09 01:40:59;;;;;;;3.75;2.35;;;;;;;;;;5014408;28;20054;-79
2022/07/09 01:43:25;;;;;;;5.10;2.40;;;;;;;;;;5010358;28;20073;-78
2022/07/09 01:45:51;;;;;;;5.10;2.63;;;;;;;;;;5006743;28;20045;-78
2022/07/09 01:48:20;;;;;;;5.00;2.45;;;;;;;;;;5009078;28;20037;-77
2022/07/09 01:50:46;;;;;;;3.65;2.33;;;;;;;;;;5006226;28;20044;-79
2022/07/09 01:53:12;;;;;;;5.95;2.65;;;;;;;;;;5011701;28;20038;-77
2022/07/09 01:55:38;;;;;;;3.33;2.13;;;;;;;;;;5024407;28;20050;-79
2022/07/09 01:58:05;;;;;;;3.58;2.50;;;;;;;;;;5002960;28;20038;-78
2022/07/09 02:00:31;;;;;;;5.20;2.50;;;;;;;;;;5009285;28;20099;-77
2022/07/09 02:02:57;;;;;;;3.85;2.60;;;;;;;;;;5015972;28;20049;-77
2022/07/09 02:05:23;;;;;;;4.72;2.47;;;;;;;;;;5005292;28;20056;-77
2022/07/09 02:07:49;;;;;;;5.82;2.65;;;;;;;;;;5021464;28;20053;-78
2022/07/09 02:10:16;;;;;;;3.55;2.40;;;;;;;;;;5008930;28;20100;-78
2022/07/09 02:12:42;;;;;;;4.93;2.40;;;;;;;;;;5004177;28;20069;-79
2022/07/09 02:15:10;;;;;;;4.05;2.33;;;;;;;;;;5013507;28;20049;-78
2022/07/09 02:17:36;;;;;;;5.65;2.40;;;;;;;;;;5007384;28;20050;-77
2022/07/09 02:20:02;;;;;;;5.22;2.20;;;;;;;;;;5015725;28;20038;-77
2022/07/09 02:22:28;;;;;;;2.75;2.35;;;;;;;;;;5008729;28;20502;-78
2022/07/09 02:24:54;;;;;;;3.85;2.30;;;;;;;;;;5018486;28;20084;-77
2022/07/09 02:27:22;;;;;;;2.88;2.40;;;;;;;;;;5013712;28;20049;-78
2022/07/09 02:29:48;;;;;;;3.95;2.55;;;;;;;;;;5018994;28;20501;-77
2022/07/09 02:32:14;;;;;;;3.55;2.40;;;;;;;;;;5010546;28;20043;-78
2022/07/09 02:34:40;;;;;;;2.40;2.03;;;;;;;;;;5009755;28;20045;-78
2022/07/09 02:37:06;;;;;;;2.55;2.33;;;;;;;;;;5007773;28;20045;-79
2022/07/09 02:39:32;;;;;;;4.10;2.40;;;;;;;;;;5008468;28;20490;-78
2022/07/09 02:41:58;;;;;;;5.80;2.20;;;;;;;;;;5002307;28;20077;-78
2022/07/09 02:44:24;;;;;;;4.13;2.15;;;;;;;;;;5004597;28;20046;-78
2022/07/09 02:46:50;;;;;;;2.38;2.17;;;;;;;;;;5001932;28;20397;-78
2022/07/09 02:49:16;;;;;;;2.72;2.10;;;;;;;;;;5006350;28;20042;-77
2022/07/09 02:51:43;;;;;;;4.07;2.10;;;;;;;;;;5006251;28;20334;-78
2022/07/09 02:54:12;;;;;;;5.55;2.25;;;;;;;;;;4999466;28;20038;-78
2022/07/09 02:56:38;;;;;;;5.65;2.55;;;;;;;;;;5007867;28;20052;-78
2022/07/09 02:59:04;;;;;;;3.58;2.20;;;;;;;;;;5015757;28;20116;-78
2022/07/09 03:01:32;;;;;;;3.17;2.20;;;;;;;;;;5006524;28;20498;-77
2022/07/09 03:03:58;;;;;;;3.63;2.13;;;;;;;;;;5001301;28;20053;-78
2022/07/09 03:06:24;;;;;;;5.07;2.30;;;;;;;;;;5001259;28;20057;-78
2022/07/09 03:08:51;;;;;;;2.58;2.10;;;;;;;;;;5013528;28;20133;-78
2022/07/09 03:11:17;;;;;;;4.57;2.22;;;;;;;;;;5009764;28;20402;-78
2022/07/09 03:13:46;;;;;;;2.22;2.05;;;;;;;;;;5007604;28;20030;-77
2022/07/09 03:16:12;;;;;;;2.42;2.10;;;;;;;;;;5009417;28;20053;-78
2022/07/09 03:18:39;;;;;;;4.97;2.03;;;;;;;;;;5007547;28;20546;-77
2022/07/09 03:21:05;;;;;;;2.97;2.00;;;;;;;;;;5008385;28;20121;-78
2022/07/09 03:23:31;;;;;;;3.20;2.00;;;;;;;;;;5020147;28;20514;-77
2022/07/09 03:25:57;;;;;;;2.88;2.22;;;;;;;;;;5009577;28;20532;-78
2022/07/09 03:28:23;;;;;;;4.55;2.05;;;;;;;;;;5011035;28;20402;-78
2022/07/09 03:30:50;;;;;;;4.35;2.10;;;;;;;;;;5007671;28;20042;-78
2022/07/09 03:33:16;;;;;;;2.78;1.90;;;;;;;;;;5008329;28;20103;-78
2022/07/09 03:35:43;;;;;;;3.90;2.13;;;;;;;;;;5006577;28;20305;-78
2022/07/09 03:38:09;;;;;;;3.50;2.20;;;;;;;;;;5008944;28;20141;-78
2022/07/09 03:40:35;;;;;;;3.60;2.05;;;;;;;;;;5004926;28;20085;-78
2022/07/09 03:43:01;;;;;;;3.85;2.20;;;;;;;;;;5003669;28;20062;-79
2022/07/09 03:45:27;;;;;;;2.80;2.17;;;;;;;;;;5008920;28;20402;-78
2022/07/09 03:47:53;;;;;;;2.60;2.15;;;;;;;;;;5014924;28;20409;-78
2022/07/09 03:50:22;;;;;;;3.03;2.40;;;;;;;;;;5010321;28;20054;-79
2022/07/09 03:52:48;;;;;;;2.40;2.20;;;;;;;;;;5007365;28;20048;-78
2022/07/09 03:55:14;;;;;;;2.97;2.13;;;;;;;;;;5013307;28;20038;-78
2022/07/09 03:57:40;;;;;;;2.28;2.03;;;;;;;;;;5008799;28;20045;-79
2022/07/09 04:00:07;;;;;;;2.55;2.20;;;;;;;;;;5007819;28;20125;-78
2022/07/09 04:02:33;;;;;;;2.60;2.20;;;;;;;;;;5010461;28;20500;-79
2022/07/09 04:04:59;;;;;;;2.97;2.45;;;;;;;;;;5012207;28;20473;-77
2022/07/09 04:07:26;;;;;;;2.63;2.42;;;;;;;;;;5013808;28;20070;-78
2022/07/09 04:09:53;;;;;;;3.92;2.40;;;;;;;;;;5010444;28;20056;-77
2022/07/09 04:12:19;;;;;;;4.15;2.47;;;;;;;;;;5005513;28;20192;-78
2022/07/09 04:14:45;;;;;;;2.88;2.20;;;;;;;;;;5006558;28;20056;-78
2022/07/09 04:17:11;;;;;;;3.05;2.13;;;;;;;;;;5013985;28;20034;-78
2022/07/09 04:19:38;;;;;;;2.75;1.85;;;;;;;;;;5003241;28;20053;-78
2022/07/09 04:22:04;;;;;;;4.30;2.20;;;;;;;;;;5011426;28;20057;-77
2022/07/09 04:24:30;;;;;;;2.72;2.22;;;;;;;;;;5013170;28;20058;-77
2022/07/09 04:26:56;;;;;;;2.92;2.08;;;;;;;;;;5016864;28;20507;-77
2022/07/09 04:29:22;;;;;;;5.72;2.00;;;;;;;;;;5007429;28;20493;-78
2022/07/09 04:31:48;;;;;;;2.25;2.05;;;;;;;;;;5007543;28;20397;-77
2022/07/09 04:34:14;;;;;;;2.45;1.80;;;;;;;;;;5013161;28;20085;-77
2022/07/09 04:36:40;;;;;;;3.40;2.10;;;;;;;;;;5007268;28;20535;-77
2022/07/09 04:39:06;;;;;;;2.15;1.90;;;;;;;;;;5006466;28;20156;-77
2022/07/09 04:41:32;;;;;;;5.43;2.25;;;;;;;;;;5009206;28;20079;-78
2022/07/09 04:43:58;;;;;;;2.50;2.20;;;;;;;;;;5006617;28;20139;-77
2022/07/09 04:46:26;;;;;;;2.40;2.20;;;;;;;;;;5004367;28;20080;-78
2022/07/09 04:48:52;;;;;;;2.95;2.20;;;;;;;;;;5010334;28;20057;-78
2022/07/09 04:51:19;;;;;;;4.57;2.35;;;;;;;;;;5008937;28;20045;-77
2022/07/09 04:53:45;;;;;;;3.80;2.55;;;;;;;;;;5005513;28;20521;-77
2022/07/09 04:56:11;;;;;;;6.03;2.35;;;;;;;;;;5012106;28;20078;-78
2022/07/09 04:58:37;;;;;;;4.95;2.50;;;;;;;;;;5003850;28;20107;-78
2022/07/09 05:01:04;;;;;;;3.95;2.67;;;;;;;;;;5009848;28;20058;-77
2022/07/09 05:03:30;;;;;;;3.30;2.30;;;;;;;;;;5015509;28;20046;-78
2022/07/09 05:05:57;;;;;;;3.63;2.55;;;;;;;;;;5023110;28;20064;-78
2022/07/09 05:08:23;;;;;;;2.95;2.33;;;;;;;;;;5012330;28;20046;-78
2022/07/09 05:10:49;;;;;;;2.92;2.20;;;;;;;;;;5024565;28;20045;-78
2022/07/09 05:13:14;;;;;;;4.82;2.22;;;;;;;;;;5008096;28;20057;-77
2022/07/09 05:15:40;;;;;;;4.97;2.40;;;;;;;;;;5008504;28;20041;-78
2022/07/09 05:18:06;;;;;;;4.15;2.38;;;;;;;;;;5007362;28;20401;-78
2022/07/09 05:20:32;;;;;;;4.78;2.22;;;;;;;;;;5009066;28;20049;-77
2022/07/09 05:22:58;;;;;;;5.82;2.50;;;;;;;;;;5012025;28;20058;-78
2022/07/09 05:25:25;;;;;;;5.25;2.28;;;;;;;;;;5010380;28;20049;-78
2022/07/09 05:27:51;;;;;;;5.38;2.47;;;;;;;;;;5011257;28;20083;-78
2022/07/09 05:30:17;;;;;;;6.10;2.53;;;;;;;;;;5008246;28;20073;-78
2022/07/09 05:32:43;;;;;;;4.05;2.00;;;;;;;;;;5007269;28;20080;-79
2022/07/09 05:35:10;;;;;;;4.60;2.10;;;;;;;;;;5009963;28;20478;-79
2022/07/09 05:37:42;;;;;;;4.43;2.20;;;;;;;;;;5010201;28;20054;-78
2022/07/09 05:40:09;;;;;;;5.75;2.30;;;;;;;;;;5025523;28;20481;-78
2022/07/09 05:42:35;;;;;;;3.00;2.15;;;;;;;;;;5002219;28;20557;-79
2022/07/09 05:45:01;;;;;;;4.07;2.30;;;;;;;;;;5012775;28;20042;-78
2022/07/09 05:47:27;;;;;;;5.05;2.20;;;;;;;;;;5008868;28;20060;-78
2022/07/09 05:49:53;;;;;;;5.63;2.47;;;;;;;;;;5004729;28;20050;-78
2022/07/09 05:52:19;;;;;;;6.72;2.28;;;;;;;;;;5010806;28;20389;-78
2022/07/09 05:54:45;;;;;;;4.10;2.47;;;;;;;;;;5008763;28;20054;-78
2022/07/09 05:57:11;;;;;;;5.07;2.10;;;;;;;;;;5019612;28;20049;-78
2022/07/09 05:59:37;;;;;;;4.03;2.10;;;;;;;;;;5002717;28;20394;-78
2022/07/09 06:02:05;;;;;;;3.70;2.10;;;;;;;;;;5002421;28;20038;-78
2022/07/09 06:04:31;;;;;;;4.97;1.98;;;;;;;;;;5003199;28;20060;-77
2022/07/09 06:07:00;;;;;;;5.70;2.60;;;;;;;;;;5004502;28;20049;-77
2022/07/09 06:09:26;;;;;;;6.30;2.40;;;;;;;;;;5011710;28;20050;-77
2022/07/09 06:11:52;;;;;;;4.65;2.30;;;;;;;;;;5008267;28;20045;-77
2022/07/09 06:14:19;;;;;;;4.45;2.60;;;;;;;;;;5010268;28;20111;-77
2022/07/09 06:16:46;;;;;;;5.95;2.50;;;;;;;;;;5004857;28;20442;-78
2022/07/09 06:19:13;;;;;;;3.05;1.92;;;;;;;;;;5017331;28;20112;-77
2022/07/09 06:21:39;;;;;;;6.78;2.47;;;;;;;;;;5009863;28;20509;-78
2022/07/09 06:24:05;;;;;;;7.72;2.17;;;;;;;;;;5011168;28;20041;-78
2022/07/09 06:26:33;;;;;;;6.63;2.40;;;;;;;;;;5030097;28;20041;-78
2022/07/09 06:28:59;;;;;;;4.35;2.20;;;;;;;;;;5010717;28;20045;-77
2022/07/09 06:31:25;;;;;;;5.32;2.10;;;;;;;;;;5011419;28;20061;-78
2022/07/09 06:33:52;;;;;;;4.57;2.17;;;;;;;;;;5009047;28;20402;-77
2022/07/09 06:36:18;;;;;;;6.38;2.20;;;;;;;;;;5007114;28;20046;-77
2022/07/09 06:41:28;;;;;;;4.20;2.10;;;;;;;;;;5005801;28;20479;-77
2022/07/09 06:43:54;;;;;;;6.00;2.17;;;;;;;;;;5008250;28;20401;-78
2022/07/09 06:46:21;;;;;;;5.20;2.03;;;;;;;;;;5011839;28;20049;-77
2022/07/09 06:48:46;;;;;;;3.60;2.03;;;;;;;;;;5008537;28;20129;-78
2022/07/09 06:51:12;;;;;;;5.80;2.38;;;;;;;;;;5006213;28;20200;-77
2022/07/09 06:53:38;;;;;;;3.45;1.92;;;;;;;;;;4999886;28;20056;-79
2022/07/09 06:56:05;;;;;;;6.50;2.42;;;;;;;;;;5011136;28;20040;-78
2022/07/09 06:58:31;;;;;;;7.20;2.10;;;;;;;;;;5011094;28;20132;-78
2022/07/09 07:00:57;;;;;;;5.47;2.88;;;;;;;;;;5007136;28;20044;-78
2022/07/09 07:03:23;;;;;;;2.85;1.80;;;;;;;;;;5008604;28;20046;-77
2022/07/09 07:05:49;;;;;;;6.90;2.53;;;;;;;;;;5008051;28;20050;-78
2022/07/09 07:08:15;;;;;;;5.28;2.30;;;;;;;;;;5014029;28;20045;-78
2022/07/09 07:10:41;;;;;;;3.80;2.25;;;;;;;;;;5009176;28;20076;-77
2022/07/09 07:13:07;;;;;;;5.45;2.25;;;;;;;;;;5004336;28;20045;-78
2022/07/09 07:15:33;;;;;;;7.50;2.45;;;;;;;;;;5001019;28;20192;-79
2022/07/09 07:17:59;;;;;;;4.35;1.88;;;;;;;;;;5008116;28;20042;-77
2022/07/09 07:20:25;;;;;;;4.13;2.13;;;;;;;;;;5002604;28;20046;-77
2022/07/09 07:22:51;;;;;;;5.95;2.13;;;;;;;;;;5009754;28;20181;-78
2022/07/09 07:25:17;;;;;;;8.23;2.10;;;;;;;;;;5007705;28;20048;-78
2022/07/09 07:27:43;;;;;;;5.10;2.00;;;;;;;;;;5006653;28;20386;-77
2022/07/09 07:30:09;;;;;;;6.32;2.10;;;;;;;;;;5009420;28;20548;-77
2022/07/09 07:32:35;;;;;;;4.30;1.80;;;;;;;;;;5006415;28;20045;-78
2022/07/09 07:35:02;;;;;;;8.82;2.22;;;;;;;;;;5007485;28;20044;-78
2022/07/09 07:37:28;;;;;;;4.78;1.90;;;;;;;;;;5008459;28;20054;-77
2022/07/09 07:39:54;;;;;;;4.75;2.10;;;;;;;;;;5000155;28;20046;-78
2022/07/09 07:42:20;;;;;;;4.43;1.95;;;;;;;;;;5004577;28;20050;-78
2022/07/09 07:44:46;;;;;;;5.55;2.08;;;;;;;;;;5008584;28;20072;-78
2022/07/09 07:47:12;;;;;;;5.00;2.20;;;;;;;;;;5012492;28;20041;-77
2022/07/09 07:49:38;;;;;;;7.03;2.10;;;;;;;;;;5011445;28;20041;-78
2022/07/09 07:52:05;;;;;;;4.32;2.10;;;;;;;;;;5013895;28;20125;-78
2022/07/09 07:54:31;;;;;;;6.13;2.38;;;;;;;;;;5011650;28;20065;-78
2022/07/09 07:56:57;;;;;;;3.70;1.85;;;;;;;;;;5011420;28;20516;-79
2022/07/09 07:59:23;;;;;;;3.08;1.90;;;;;;;;;;5012707;28;20150;-78
2022/07/09 08:01:49;;;;;;;8.18;2.10;;;;;;;;;;5013825;28;20042;-78
2022/07/09 08:04:15;;;;;;;5.25;2.22;;;;;;;;;;5009060;28;20045;-77
2022/07/09 08:06:41;;;;;;;5.63;2.35;;;;;;;;;;5007348;28;20046;-77
2022/07/09 08:09:07;;;;;;;5.43;2.30;;;;;;;;;;5011894;28;20049;-77
2022/07/09 08:11:36;;;;;;;6.30;2.30;;;;;;;;;;5008746;28;20074;-77
2022/07/09 08:14:02;;;;;;;5.30;1.92;;;;;;;;;;5005359;28;20088;-76
2022/07/09 08:16:28;;;;;;;2.78;1.80;;;;;;;;;;5008162;28;20109;-79
2022/07/09 08:18:54;;;;;;;7.57;2.13;;;;;;;;;;5011001;28;20458;-79
2022/07/09 08:21:20;;;;;;;4.88;2.00;;;;;;;;;;5017975;28;20053;-75
2022/07/09 08:23:56;;;;;;;6.55;2.25;;;;;;;;;;5010674;28;20504;-78
2022/07/09 08:26:24;;;;;;;5.03;2.28;;;;;;;;;;5011428;28;20085;-79
2022/07/09 08:28:50;;;;;;;7.85;2.38;;;;;;;;;;5010235;28;20076;-73
2022/07/09 08:31:17;;;;;;;5.45;2.22;;;;;;;;;;5007280;28;20038;-73
2022/07/09 08:33:43;;;;;;;5.53;2.22;;;;;;;;;;5010411;28;20107;-74
2022/07/09 08:36:09;;;;;;;5.40;2.20;;;;;;;;;;5016038;28;20042;-74
2022/07/09 08:38:35;;;;;;;6.18;2.20;;;;;;;;;;5026156;28;20041;-73
2022/07/09 08:41:01;;;;;;;4.90;1.92;;;;;;;;;;5003100;28;20053;-79
2022/07/09 08:43:32;;;;;;;7.22;2.22;;;;;;;;;;5010233;28;20085;-79
2022/07/09 08:45:59;;;;;;;6.18;2.13;;;;;;;;;;5010649;28;20048;-76
2022/07/09 08:48:25;;;;;;;7.32;2.15;;;;;;;;;;5006646;28;20126;-76
2022/07/09 08:50:51;;;;;;;5.22;2.42;;;;;;;;;;5005052;28;20580;-76
2022/07/09 08:53:18;;;;;;;4.95;2.10;;;;;;;;;;5008204;28;20053;-77
2022/07/09 08:55:48;;;;;;;4.70;2.00;;;;;;;;;;5009679;28;20037;-77
2022/07/09 08:58:14;;;;;;;6.32;2.15;;;;;;;;;;4994106;28;20054;-77
2022/07/09 09:00:43;;;;;;;5.88;2.33;;;;;;;;;;5001101;28;20050;-77
2022/07/09 09:03:09;;;;;;;5.50;2.33;;;;;;;;;;5009479;28;20041;-77
2022/07/09 09:05:35;;;;;;;7.20;2.50;;;;;;;;;;5009545;28;20053;-76
2022/07/09 09:08:16;;;;;;;4.38;2.10;;;;;;;;;;5012690;28;20452;-75
2022/07/09 09:10:45;;;;;;;4.63;3.38;;;;;;;;;;5007541;28;20050;-75
2022/07/09 09:13:15;;;;;;;8.18;2.42;;;;;;;;;;5002869;28;20995;-77
2022/07/09 09:15:41;;;;;;;5.32;2.58;;;;;;;;;;5002766;28;20363;-76
2022/07/09 09:18:07;;;;;;;5.75;2.28;;;;;;;;;;5003825;28;20100;-75
2022/07/09 09:20:33;;;;;;;4.90;2.33;;;;;;;;;;5003401;28;20041;-76
2022/07/09 09:23:00;;;;;;;3.70;2.10;;;;;;;;;;5012126;28;20516;-76
2022/07/09 09:25:27;;;;;;;4.60;2.30;;;;;;;;;;5011769;28;20050;-74
2022/07/09 09:27:57;;;;;;;5.93;2.35;;;;;;;;;;5009921;28;20183;-75
2022/07/09 09:30:24;;;;;;;4.45;2.28;;;;;;;;;;5003785;28;20045;-74
2022/07/09 09:32:56;;;;;;;6.05;2.00;;;;;;;;;;5013287;28;20053;-76
2022/07/09 09:35:23;;;;;;;2.83;2.03;;;;;;;;;;5011841;28;20046;-79
2022/07/09 09:37:51;;;;;;;5.82;2.63;;;;;;;;;;5011180;28;20057;-76
2022/07/09 09:40:17;;;;;;;5.18;2.28;;;;;;;;;;5010960;28;20231;-77
2022/07/09 09:42:44;;;;;;;8.75;2.47;;;;;;;;;;5004910;28;20051;-77
2022/07/09 09:45:12;;;;;;;5.95;2.40;;;;;;;;;;5006242;28;20128;-76
2022/07/09 09:47:38;;;;;;;4.85;2.60;;;;;;;;;;5011807;28;20050;-78
2022/07/09 09:50:04;;;;;;;4.35;2.00;;;;;;;;;;5013431;28;20042;-77
2022/07/09 09:52:31;;;;;;;5.03;2.70;;;;;;;;;;5011962;28;20107;-80
2022/07/09 09:54:57;;;;;;;6.05;2.75;;;;;;;;;;5008672;28;20048;-78
2022/07/09 09:57:26;;;;;;;6.32;2.67;;;;;;;;;;5011437;28;20077;-79
2022/07/09 09:59:53;;;;;;;7.65;2.20;;;;;;;;;;5009794;28;20389;-78
2022/07/09 10:02:20;;;;;;;6.80;2.55;;;;;;;;;;5006374;28;20065;-80
2022/07/09 10:04:46;;;;;;;4.95;2.20;;;;;;;;;;5009772;28;20050;-79
2022/07/09 10:07:13;;;;;;;6.65;2.00;;;;;;;;;;5010154;28;20117;-81
2022/07/09 10:09:39;;;;;;;7.65;2.55;;;;;;;;;;5008176;28;20054;-79
2022/07/09 10:12:06;;;;;;;5.68;2.20;;;;;;;;;;5009532;28;20077;-78
2022/07/09 10:14:33;;;;;;;5.28;2.17;;;;;;;;;;5021949;28;20057;-79
2022/07/09 10:17:13;;;;;;;5.10;2.00;;;;;;;;;;5014509;28;20046;-79
2022/07/09 10:19:39;;;;;;;5.75;2.13;;;;;;;;;;5012238;28;20112;-77
2022/07/09 10:22:05;;;;;;;6.18;2.20;;;;;;;;;;5008463;28;20093;-78
2022/07/09 10:24:32;;;;;;;6.80;2.50;;;;;;;;;;5010822;28;20058;-78
2022/07/09 10:27:06;;;;;;;6.70;2.00;;;;;;;;;;5010469;28;20050;-78
2022/07/09 10:29:32;;;;;;;5.90;1.88;;;;;;;;;;5009373;28;20049;-78
2022/07/09 10:31:58;;;;;;;5.78;2.15;;;;;;;;;;5006138;28;20053;-79
2022/07/09 10:34:45;;;;;;;6.32;1.80;;;;;;;;;;5001761;28;20048;-79
2022/07/09 10:37:11;;;;;;;6.93;1.80;;;;;;;;;;5010878;28;20180;-79
2022/07/09 10:39:37;;;;;;;4.78;1.90;;;;;;;;;;5008344;28;20049;-78
2022/07/09 10:42:07;;;;;;;4.80;1.80;;;;;;;;;;5004555;28;20045;-78
2022/07/09 10:44:37;;;;;;;5.82;2.05;;;;;;;;;;5007535;28;20033;-79
2022/07/09 10:47:04;;;;;;;3.90;2.13;;;;;;;;;;5010378;28;20575;-78
2022/07/09 10:49:30;;;;;;;4.00;1.75;;;;;;;;;;5002692;28;20650;-78
2022/07/09 10:51:57;;;;;;;5.82;1.80;;;;;;;;;;5010991;28;20048;-78
2022/07/09 10:54:24;;;;;;;5.38;2.00;;;;;;;;;;5013399;28;20053;-77
2022/07/09 10:56:50;;;;;;;5.00;1.90;;;;;;;;;;5009542;28;20053;-78
2022/07/09 10:59:19;;;;;;;4.80;1.92;;;;;;;;;;5009290;28;20042;-78
2022/07/09 11:01:45;;;;;;;4.28;1.85;;;;;;;;;;4998969;28;20050;-79
2022/07/09 11:04:14;;;;;;;2.35;1.63;;;;;;;;;;5018849;28;20425;-79
2022/07/09 12:31:21;;;;;;;3.03;2.05;;;;;;;;;;5063680;27;20987;-83
2022/07/09 12:33:47;;;;;;;8.00;2.30;;;;;;;;;;5050275;28;20041;-75
2022/07/09 12:36:14;;;;;;;5.10;1.83;;;;;;;;;;5038054;28;20054;-76
2022/07/09 12:38:40;;;;;;;9.07;2.70;;;;;;;;;;5037606;28;20045;-76
2022/07/09 12:41:06;;;;;;;3.47;1.70;;;;;;;;;;5037254;28;20030;-75
2022/07/09 12:43:32;;;;;;;5.07;1.90;;;;;;;;;;5045015;28;20477;-76
2022/07/09 12:45:58;;;;;;;3.25;1.90;;;;;;;;;;5044225;28;20047;-74
2022/07/09 12:48:24;;;;;;;2.33;1.60;;;;;;;;;;5049178;28;20049;-74
2022/07/09 12:50:50;;;;;;;2.42;1.50;;;;;;;;;;5046823;28;20408;-73
2022/07/09 12:53:16;;;;;;;3.38;1.98;;;;;;;;;;5047109;28;20053;-74
2022/07/09 12:55:42;;;;;;;3.83;1.83;;;;;;;;;;5043498;28;20041;-74
2022/07/09 12:58:08;;;;;;;3.97;1.67;;;;;;;;;;5044492;28;20084;-74
2022/07/09 13:00:34;;;;;;;5.88;1.90;;;;;;;;;;5051955;28;20073;-74
2022/07/09 13:03:00;;;;;;;3.65;1.70;;;;;;;;;;5061040;28;20445;-74
2022/07/09 13:05:26;;;;;;;4.05;2.03;;;;;;;;;;5053262;28;20091;-74
2022/07/09 13:07:52;;;;;;;4.70;1.98;;;;;;;;;;5040237;28;20103;-76
2022/07/09 13:10:18;;;;;;;5.93;2.10;;;;;;;;;;5035799;28;20460;-76
2022/07/09 13:12:44;;;;;;;3.80;1.73;;;;;;;;;;5066457;28;20075;-74
2022/07/09 13:15:11;;;;;;;2.95;1.80;;;;;;;;;;5039771;28;20053;-75
2022/07/09 13:17:37;;;;;;;4.28;2.10;;;;;;;;;;5053435;28;20112;-74
2022/07/09 13:20:03;;;;;;;2.13;1.48;;;;;;;;;;5039090;28;20552;-73
2022/07/09 13:22:29;;;;;;;3.03;1.80;;;;;;;;;;5040588;28;20045;-74
2022/07/09 13:24:55;;;;;;;4.55;1.70;;;;;;;;;;5070331;28;20100;-75
2022/07/09 13:27:21;;;;;;;4.07;2.03;;;;;;;;;;5047885;28;20119;-74
2022/07/09 13:29:48;;;;;;;3.88;1.92;;;;;;;;;;5053433;28;20053;-74
2022/07/09 13:32:14;;;;;;;3.20;1.90;;;;;;;;;;5066122;28;20045;-74
2022/07/09 13:34:40;;;;;;;5.65;2.00;;;;;;;;;;5078750;28;20412;-74
2022/07/09 13:37:06;;;;;;;5.15;1.80;;;;;;;;;;5037593;28;20041;-73
2022/07/09 13:39:32;;;;;;;4.72;2.05;;;;;;;;;;5035356;28;20049;-72
2022/07/09 13:41:58;;;;;;;4.60;2.00;;;;;;;;;;5040932;28;20049;-74
2022/07/09 13:44:24;;;;;;;6.15;2.22;;;;;;;;;;5033179;28;20088;-75
2022/07/09 13:46:50;;;;;;;5.43;2.30;;;;;;;;;;5029714;28;20042;-75
2022/07/09 13:49:16;;;;;;;5.20;1.98;;;;;;;;;;5030282;28;20045;-74
2022/07/09 13:51:42;;;;;;;5.75;2.13;;;;;;;;;;5024045;28;20044;-74
2022/07/09 13:54:08;;;;;;;2.40;1.67;;;;;;;;;;5027256;28;20393;-74
2022/07/09 13:56:34;;;;;;;4.13;1.95;;;;;;;;;;5027916;28;20045;-73
2022/07/09 13:59:00;;;;;;;4.68;2.15;;;;;;;;;;5032729;28;20037;-73
2022/07/09 14:01:26;;;;;;;4.47;2.13;;;;;;;;;;5034446;28;20049;-73
2022/07/09 14:03:54;;;;;;;5.32;1.83;;;;;;;;;;5032064;28;20538;-73
2022/07/09 14:06:20;;;;;;;3.30;1.73;;;;;;;;;;5023644;28;20147;-73
2022/07/09 14:08:46;;;;;;;5.05;2.28;;;;;;;;;;5030530;28;20076;-73
2022/07/09 14:11:12;;;;;;;4.47;2.03;;;;;;;;;;5033673;28;20042;-73
2022/07/09 14:13:39;;;;;;;4.93;2.03;;;;;;;;;;5031021;28;20528;-73
2022/07/09 14:16:05;;;;;;;4.20;1.98;;;;;;;;;;5029599;28;20455;-73
2022/07/09 14:18:31;;;;;;;3.35;1.83;;;;;;;;;;5066319;28;20042;-73
2022/07/09 14:20:57;;;;;;;4.38;1.80;;;;;;;;;;5021747;28;20053;-73
2022/07/09 14:23:23;;;;;;;2.78;1.95;;;;;;;;;;5014557;28;20046;-73
2022/07/09 14:25:49;;;;;;;4.25;1.90;;;;;;;;;;5030964;28;20461;-73
2022/07/09 14:28:16;;;;;;;4.53;1.83;;;;;;;;;;5024891;28;20505;-74
2022/07/09 14:30:42;;;;;;;3.30;1.70;;;;;;;;;;5017881;28;20494;-74
2022/07/09 14:33:08;;;;;;;3.50;1.98;;;;;;;;;;5014428;28;20046;-73
2022/07/09 14:35:34;;;;;;;2.60;1.67;;;;;;;;;;5023685;28;20057;-74
2022/07/09 14:38:03;;;;;;;3.33;1.70;;;;;;;;;;5033076;28;20045;-73
2022/07/09 14:40:29;;;;;;;3.72;1.95;;;;;;;;;;5030747;28;20119;-74
2022/07/09 14:42:55;;;;;;;3.38;1.50;;;;;;;;;;5031642;28;20049;-74
2022/07/09 14:45:23;;;;;;;2.35;1.70;;;;;;;;;;5027225;28;20477;-73
2022/07/09 14:47:49;;;;;;;2.90;1.60;;;;;;;;;;5026935;28;20067;-74
2022/07/09 14:50:15;;;;;;;3.75;1.80;;;;;;;;;;5015364;28;20489;-74
2022/07/09 14:52:45;;;;;;;3.45;1.58;;;;;;;;;;5030806;28;20077;-74
2022/07/09 14:55:11;;;;;;;3.45;1.80;;;;;;;;;;5025652;28;20053;-74
2022/07/09 14:57:37;;;;;;;2.35;1.60;;;;;;;;;;5031396;28;20493;-74
2022/07/09 15:00:04;;;;;;;2.17;1.45;;;;;;;;;;5031458;28;20056;-74
2022/07/09 15:02:30;;;;;;;4.18;1.60;;;;;;;;;;5025470;28;20473;-74
2022/07/09 15:04:56;;;;;;;3.20;1.55;;;;;;;;;;5031521;28;20091;-73
2022/07/09 15:07:23;;;;;;;2.35;1.50;;;;;;;;;;5030149;28;20095;-74
2022/07/09 15:09:50;;;;;;;2.72;1.58;;;;;;;;;;5053063;28;20045;-74
2022/07/09 15:12:16;;;;;;;3.50;1.55;;;;;;;;;;5040138;28;20081;-73
2022/07/09 15:14:42;;;;;;;7.22;1.65;;;;;;;;;;5064133;28;20053;-74
2022/07/09 15:17:08;;;;;;;3.80;1.60;;;;;;;;;;5057097;28;20029;-74
2022/07/09 15:19:34;;;;;;;2.72;1.40;;;;;;;;;;5023684;28;20059;-74
2022/07/09 15:22:00;;;;;;;3.38;1.48;;;;;;;;;;5017673;28;20103;-73
2022/07/09 15:24:26;;;;;;;3.08;1.60;;;;;;;;;;5018703;28;20100;-74
2022/07/09 15:26:52;;;;;;;3.85;1.83;;;;;;;;;;5028470;28;20440;-75
2022/07/09 15:29:18;;;;;;;2.88;1.33;;;;;;;;;;5029033;28;20057;-74
2022/07/09 15:31:45;;;;;;;2.42;1.40;;;;;;;;;;5056621;28;20069;-75
2022/07/09 15:34:11;;;;;;;3.10;1.58;;;;;;;;;;5028609;28;20654;-78
2022/07/09 15:36:37;;;;;;;4.55;1.70;;;;;;;;;;5032581;28;20049;-79
2022/07/09 15:39:03;;;;;;;2.92;1.42;;;;;;;;;;5043042;28;20091;-74
2022/07/09 15:41:33;;;;;;;2.25;1.48;;;;;;;;;;5029342;28;20144;-75
2022/07/09 15:44:01;;;;;;;4.10;1.50;;;;;;;;;;5032925;28;20076;-75
2022/07/09 15:46:27;;;;;;;4.10;1.50;;;;;;;;;;5030736;28;20459;-74
2022/07/09 15:48:53;;;;;;;3.05;1.50;;;;;;;;;;5029901;28;20041;-74
2022/07/09 15:51:19;;;;;;;3.03;1.50;;;;;;;;;;5023612;28;20072;-79
2022/07/09 15:53:45;;;;;;;3.47;1.75;;;;;;;;;;5028488;28;20045;-79
2022/07/09 15:56:11;;;;;;;3.08;1.60;;;;;;;;;;5020598;28;20045;-77
2022/07/09 15:58:37;;;;;;;3.63;1.70;;;;;;;;;;5026754;28;20045;-76
2022/07/09 16:01:04;;;;;;;3.25;1.70;;;;;;;;;;5020047;28;20045;-75
2022/07/09 16:03:30;;;;;;;3.95;1.70;;;;;;;;;;5027861;28;20509;-75
2022/07/09 16:05:56;;;;;;;3.28;1.40;;;;;;;;;;5029232;28;20077;-76